Terminal Aerodrome Forecast
Issued by NWS

Home | Current Version | Previous Version | Text Only | Print | Product List | Glossary On
Versions: 1 2 3 4 5 6 7 8 9 10 11 12 13 14 15 16 17 18 19 20 21 22 23 24 25
000
FTUS43 KGRR 261722
TAFJXN
TAF
KJXN 261722Z 2618/2718 29005KT P6SM SCT250
     FM262100 25012KT P6SM BKN250
     FM262300 26006KT P6SM BKN250
     FM270300 18003KT P6SM SCT250
     FM271000 27004KT P6SM VCSH SCT035 BKN080
     FM271200 31010KT P6SM VCSH BKN050=

USA.gov is the U.S. government's official web portal to all federal, state and local government web resources and services.